createdAt,value
2022-08-03T00:02:49.458Z,19.10
2022-08-03T00:08:17.499Z,19.00
2022-08-03T00:13:47.782Z,18.90
2022-08-03T00:19:16.023Z,18.80
2022-08-03T00:24:43.912Z,18.70
2022-08-03T00:30:12.544Z,18.60
2022-08-03T00:35:50.710Z,18.50
2022-08-03T00:41:19.131Z,18.50
2022-08-03T00:46:47.027Z,18.50
2022-08-03T00:52:17.176Z,18.40
2022-08-03T00:57:45.616Z,18.40
2022-08-03T01:03:13.592Z,18.40
2022-08-03T01:09:00.032Z,18.20
2022-08-03T01:14:48.497Z,18.10
2022-08-03T01:20:18.746Z,18.10
2022-08-03T01:26:32.057Z,18.00
2022-08-03T01:32:54.510Z,17.90
2022-08-03T01:38:02.507Z,17.90
2022-08-03T01:44:27.043Z,17.80
2022-08-03T01:49:19.282Z,17.70
2022-08-03T01:54:51.855Z,17.60
2022-08-03T02:05:49.927Z,17.50
2022-08-03T02:11:22.261Z,17.40
2022-08-03T02:16:51.890Z,17.30
2022-08-03T02:27:59.849Z,17.30
2022-08-03T02:33:33.536Z,17.20
2022-08-03T02:39:03.819Z,17.10
2022-08-03T02:44:33.267Z,17.10
2022-08-03T02:50:03.694Z,17.00
2022-08-03T02:55:35.335Z,17.00
2022-08-03T03:01:03.871Z,16.90
2022-08-03T03:06:32.635Z,19.50
2022-08-03T03:12:03.098Z,16.80
2022-08-03T03:17:31.951Z,16.70
2022-08-03T03:23:01.343Z,16.70
2022-08-03T03:28:30.926Z,16.60
2022-08-03T03:33:59.681Z,16.60
2022-08-03T03:39:27.690Z,16.50
2022-08-03T03:50:24.918Z,16.50
2022-08-03T03:55:59.653Z,16.40
2022-08-03T04:01:31.369Z,16.20
2022-08-03T04:12:50.012Z,16.30
2022-08-03T04:18:20.116Z,16.40
2022-08-03T04:23:52.068Z,16.40
2022-08-03T04:40:31.330Z,16.70
2022-08-03T04:46:01.101Z,16.90
2022-08-03T04:56:57.116Z,17.10
2022-08-03T05:13:21.679Z,17.80
2022-08-03T05:29:47.157Z,18.50
2022-08-03T05:36:02.062Z,18.50
2022-08-03T05:41:21.408Z,18.80
2022-08-03T05:46:52.389Z,19.60
2022-08-03T06:03:17.116Z,19.80
2022-08-03T06:08:49.176Z,20.30
2022-08-03T06:14:17.034Z,20.60
2022-08-03T06:19:45.021Z,20.70
2022-08-03T06:25:13.120Z,20.80
2022-08-03T06:30:42.205Z,21.10
2022-08-03T06:36:10.022Z,21.40
2022-08-03T06:41:44.655Z,21.60
2022-08-03T06:47:12.860Z,22.00
2022-08-03T06:52:40.856Z,22.40
2022-08-03T06:58:09.860Z,22.40
2022-08-03T07:03:37.729Z,22.90
2022-08-03T07:09:19.976Z,22.90
2022-08-03T07:14:47.881Z,23.30
2022-08-03T07:20:17.516Z,23.40
2022-08-03T07:31:13.447Z,23.80
2022-08-03T07:42:09.562Z,24.20
2022-08-03T07:47:37.468Z,24.60
2022-08-03T07:53:05.314Z,24.70
2022-08-03T07:58:33.103Z,24.90
2022-08-03T08:04:00.901Z,25.20
2022-08-03T08:09:28.839Z,25.60
2022-08-03T08:14:57.244Z,25.90
2022-08-03T08:20:33.526Z,26.00
2022-08-03T08:26:02.871Z,26.30
2022-08-03T08:31:30.794Z,26.60
2022-08-03T08:36:58.971Z,26.90
2022-08-03T08:42:26.885Z,26.80
2022-08-03T08:48:01.005Z,27.00
2022-08-03T08:53:33.770Z,27.20
2022-08-03T08:59:02.885Z,27.50
2022-08-03T09:04:32.380Z,27.60
2022-08-03T09:10:12.267Z,27.70
2022-08-03T09:15:42.390Z,27.90
2022-08-03T09:21:32.141Z,28.10
2022-08-03T09:27:00.589Z,28.30
2022-08-03T09:32:32.902Z,28.50
2022-08-03T09:38:33.373Z,28.60
2022-08-03T09:44:01.373Z,28.90
2022-08-03T09:49:29.378Z,29.30
2022-08-03T09:54:57.674Z,29.30
2022-08-03T10:00:25.672Z,29.40
2022-08-03T10:05:59.079Z,29.60
2022-08-03T10:11:40.933Z,29.90
2022-08-03T10:17:13.423Z,30.20
2022-08-03T10:22:42.424Z,30.10
2022-08-03T10:28:15.798Z,30.20
2022-08-03T10:33:50.183Z,30.30
2022-08-03T10:39:23.854Z,30.30
2022-08-03T10:45:05.294Z,30.60
2022-08-03T10:50:33.571Z,30.40
2022-08-03T11:02:10.068Z,30.40
2022-08-03T11:07:40.046Z,30.60
2022-08-03T11:13:09.170Z,30.90
2022-08-03T11:18:37.389Z,31.00
2022-08-03T11:24:06.811Z,31.30
2022-08-03T11:29:34.912Z,31.40
2022-08-03T11:35:30.243Z,31.40
2022-08-03T11:40:58.382Z,31.60
2022-08-03T11:46:30.065Z,31.80
2022-08-03T11:51:58.288Z,31.80
2022-08-03T11:59:11.018Z,31.80
2022-08-03T12:08:51.004Z,32.10
2022-08-03T12:14:50.625Z,32.20
2022-08-03T12:20:10.775Z,32.20
2022-08-03T12:25:41.285Z,32.30
2022-08-03T12:31:09.687Z,32.10
2022-08-03T12:36:38.678Z,32.10
2022-08-03T12:42:06.700Z,32.10
2022-08-03T12:47:58.924Z,32.20
2022-08-03T12:53:30.419Z,32.20
2022-08-03T12:58:58.361Z,32.20
2022-08-03T13:04:33.218Z,32.10
2022-08-03T13:10:07.669Z,32.00
2022-08-03T13:15:38.805Z,32.00
2022-08-03T13:21:17.100Z,32.00
2022-08-03T13:26:45.274Z,32.20
2022-08-03T13:32:13.189Z,32.10
2022-08-03T13:37:41.065Z,32.20
2022-08-03T13:43:09.482Z,32.40
2022-08-03T13:48:37.957Z,32.40
2022-08-03T13:54:06.196Z,32.50
2022-08-03T13:59:34.755Z,32.60
2022-08-03T14:05:02.879Z,32.60
2022-08-03T14:10:30.806Z,32.60
2022-08-03T14:15:58.731Z,32.60
2022-08-03T14:21:27.137Z,32.70
2022-08-03T14:27:02.214Z,32.70
2022-08-03T14:32:33.793Z,32.60
2022-08-03T14:38:01.719Z,32.80
2022-08-03T14:43:34.180Z,32.80
2022-08-03T14:50:38.880Z,33.10
2022-08-03T14:54:52.852Z,33.50
2022-08-03T15:00:21.054Z,40.70
2022-08-03T15:05:56.761Z,38.10
2022-08-03T15:11:24.790Z,35.70
2022-08-03T15:16:53.575Z,35.50
2022-08-03T15:22:24.832Z,33.90
2022-08-03T15:28:02.733Z,33.20
2022-08-03T15:33:32.795Z,32.70
2022-08-03T15:39:04.645Z,32.40
2022-08-03T15:44:32.685Z,32.00
2022-08-03T15:50:00.627Z,31.80
2022-08-03T16:00:58.486Z,31.70
2022-08-03T16:12:04.483Z,31.40
2022-08-03T16:17:32.624Z,31.20
2022-08-03T16:34:07.282Z,31.00
2022-08-03T16:39:35.944Z,30.80
2022-08-03T16:45:09.687Z,30.70
2022-08-03T16:56:10.178Z,30.50
2022-08-03T17:01:40.750Z,30.60
2022-08-03T17:07:09.097Z,30.70
2022-08-03T17:12:38.014Z,31.60
2022-08-03T17:18:09.299Z,31.10
2022-08-03T17:23:56.713Z,30.60
2022-08-03T17:29:30.082Z,30.40
2022-08-03T17:34:58.091Z,30.00
2022-08-03T17:51:53.125Z,29.30
2022-08-03T17:58:02.004Z,29.30
2022-08-03T18:03:58.657Z,29.20
2022-08-03T18:10:03.451Z,28.80
2022-08-03T18:15:27.238Z,29.00
2022-08-03T18:20:58.007Z,28.70
2022-08-03T18:26:27.766Z,28.80
2022-08-03T18:32:04.265Z,28.60
2022-08-03T18:43:47.200Z,28.40
2022-08-03T18:49:34.209Z,28.20
2022-08-03T18:55:20.845Z,27.90
2022-08-03T19:01:59.622Z,27.70
2022-08-03T19:07:35.883Z,27.60
2022-08-03T19:13:30.963Z,27.50
2022-08-03T19:19:14.392Z,27.20
2022-08-03T19:30:32.164Z,26.80
2022-08-03T19:36:00.576Z,26.90
2022-08-03T19:41:42.065Z,26.60
2022-08-03T19:47:34.094Z,26.40
2022-08-03T19:53:10.237Z,26.20
2022-08-03T19:58:42.865Z,26.20
2022-08-03T20:04:11.549Z,25.90
2022-08-03T20:15:13.425Z,25.80
2022-08-03T20:26:19.653Z,25.20
2022-08-03T20:42:46.259Z,25.10
2022-08-03T20:53:59.759Z,24.70
2022-08-03T20:59:46.922Z,24.50
2022-08-03T21:11:17.180Z,24.30
2022-08-03T21:12:58.652Z,28.60
2022-08-03T21:16:49.910Z,24.20
2022-08-03T21:22:22.405Z,24.00
2022-08-03T21:27:53.913Z,23.90
2022-08-03T21:33:27.861Z,23.80
2022-08-03T21:38:57.725Z,23.60
2022-08-03T21:44:29.067Z,23.50
2022-08-03T21:50:07.142Z,23.30
2022-08-03T21:55:40.159Z,23.20
2022-08-03T22:01:10.897Z,23.10
2022-08-03T22:06:42.468Z,22.90
2022-08-03T22:12:10.423Z,22.80
2022-08-03T22:17:54.850Z,22.40
2022-08-03T22:23:27.465Z,22.50
2022-08-03T22:28:59.726Z,22.40
2022-08-03T22:34:28.762Z,22.50
2022-08-03T22:39:58.407Z,22.10
2022-08-03T22:46:06.446Z,22.00
2022-08-03T22:51:15.602Z,22.00
2022-08-03T22:56:47.547Z,21.80
2022-08-03T23:02:22.470Z,21.80
2022-08-03T23:07:53.435Z,21.70
2022-08-03T23:13:25.498Z,21.50
2022-08-03T23:30:00.854Z,21.20
2022-08-03T23:41:39.356Z,21.10
2022-08-03T23:53:05.807Z,20.90
